createdAt,value
2019-05-03T00:04:51.653Z,64.59
2019-05-03T00:10:25.686Z,64.91
2019-05-03T00:15:39.803Z,65.05
2019-05-03T00:20:54.762Z,65.28
2019-05-03T00:26:31.902Z,65.27
2019-05-03T00:31:46.826Z,65.05
2019-05-03T00:37:03.382Z,64.41
2019-05-03T00:42:22.405Z,64.55
2019-05-03T00:47:55.293Z,64.75
2019-05-03T00:53:47.904Z,64.99
2019-05-03T00:59:02.195Z,64.90
2019-05-03T01:04:19.610Z,64.36
2019-05-03T01:09:35.281Z,63.85
2019-05-03T01:14:47.215Z,63.90
2019-05-03T01:19:57.571Z,64.33
2019-05-03T01:25:12.077Z,64.46
2019-05-03T01:30:24.569Z,64.49
2019-05-03T01:36:13.970Z,64.32
2019-05-03T01:41:26.537Z,64.48
2019-05-03T01:46:42.076Z,64.79
2019-05-03T01:52:14.887Z,64.91
2019-05-03T01:57:27.325Z,64.98
2019-05-03T02:02:54.423Z,65.12
2019-05-03T02:08:07.389Z,65.73
2019-05-03T02:13:18.665Z,67.13
2019-05-03T02:18:32.177Z,67.85
2019-05-03T02:23:48.439Z,68.11
2019-05-03T02:28:58.027Z,68.36
2019-05-03T02:34:13.941Z,68.24
2019-05-03T02:39:26.203Z,68.45
2019-05-03T02:44:57.241Z,68.51
2019-05-03T02:50:16.789Z,68.55
2019-05-03T02:55:30.103Z,68.44
2019-05-03T03:01:06.577Z,68.08
2019-05-03T03:06:27.069Z,68.06
2019-05-03T03:11:45.630Z,68.17
2019-05-03T03:17:02.384Z,68.35
2019-05-03T03:22:16.019Z,68.35
2019-05-03T03:27:28.057Z,68.37
2019-05-03T03:32:42.739Z,68.47
2019-05-03T03:38:00.904Z,68.24
2019-05-03T03:43:16.455Z,67.75
2019-05-03T03:48:35.510Z,67.89
2019-05-03T03:54:07.093Z,67.83
2019-05-03T03:59:26.177Z,68.00
2019-05-03T04:04:58.368Z,68.13
2019-05-03T04:10:10.841Z,68.57
2019-05-03T04:15:36.642Z,68.23
2019-05-03T04:20:56.886Z,68.13
2019-05-03T04:26:16.328Z,68.13
2019-05-03T04:31:27.829Z,67.91
2019-05-03T04:36:41.141Z,67.82
2019-05-03T04:41:49.320Z,67.89
2019-05-03T04:47:06.904Z,67.76
2019-05-03T04:52:19.222Z,67.03
2019-05-03T04:57:39.795Z,66.24
2019-05-03T05:02:45.736Z,66.17
2019-05-03T05:08:05.940Z,66.28
2019-05-03T05:13:15.711Z,65.68
2019-05-03T05:18:35.632Z,65.06
2019-05-03T05:24:06.863Z,63.18
2019-05-03T05:29:21.062Z,63.94
2019-05-03T05:34:32.317Z,63.78
2019-05-03T05:39:48.819Z,63.62
2019-05-03T05:45:04.922Z,63.94
2019-05-03T05:50:48.787Z,62.83
2019-05-03T05:56:35.349Z,60.86
2019-05-03T06:02:10.111Z,59.96
2019-05-03T06:07:44.564Z,60.19
2019-05-03T06:13:04.939Z,59.37
2019-05-03T06:18:25.131Z,59.29
2019-05-03T06:23:52.901Z,59.87
2019-05-03T06:29:04.750Z,59.48
2019-05-03T06:34:14.981Z,59.59
2019-05-03T06:39:25.317Z,59.71
2019-05-03T06:44:36.955Z,59.65
2019-05-03T06:49:48.621Z,60.09
2019-05-03T06:55:10.517Z,58.67
2019-05-03T07:00:39.706Z,58.33
2019-05-03T07:06:11.863Z,56.85
2019-05-03T07:11:24.817Z,55.72
2019-05-03T07:16:39.907Z,55.13
2019-05-03T07:21:55.448Z,55.38
2019-05-03T07:27:08.215Z,55.83
2019-05-03T07:32:31.315Z,54.77
2019-05-03T07:37:41.742Z,53.31
2019-05-03T07:42:56.895Z,53.73
2019-05-03T07:48:14.913Z,52.02
2019-05-03T07:54:01.899Z,50.33
2019-05-03T07:59:14.988Z,48.94
2019-05-03T08:04:29.647Z,50.63
2019-05-03T08:10:05.407Z,50.35
2019-05-03T08:15:24.063Z,50.75
2019-05-03T08:20:40.923Z,48.06
2019-05-03T08:25:51.435Z,47.55
2019-05-03T08:31:32.310Z,44.69
2019-05-03T08:37:18.510Z,46.63
2019-05-03T08:42:35.166Z,43.59
2019-05-03T08:47:55.343Z,44.34
2019-05-03T08:53:07.704Z,42.49
2019-05-03T08:58:18.935Z,45.49
2019-05-03T09:03:38.482Z,43.18
2019-05-03T09:08:54.357Z,41.76
2019-05-03T09:14:11.875Z,39.08
2019-05-03T09:19:45.323Z,40.73
2019-05-03T09:25:00.312Z,40.40
2019-05-03T09:30:14.370Z,43.60
2019-05-03T09:35:45.763Z,40.94
2019-05-03T09:41:02.189Z,41.81
2019-05-03T09:46:15.328Z,40.65
2019-05-03T09:51:28.555Z,38.56
2019-05-03T09:56:58.514Z,39.42
2019-05-03T10:02:15.172Z,39.24
2019-05-03T10:07:37.217Z,39.16
2019-05-03T10:12:52.356Z,37.87
2019-05-03T10:18:10.319Z,37.90
2019-05-03T10:23:47.050Z,37.17
2019-05-03T10:35:00.459Z,37.11
2019-05-03T10:40:17.734Z,37.25
2019-05-03T10:45:32.531Z,38.12
2019-05-03T10:51:09.930Z,38.94
2019-05-03T10:56:23.715Z,37.62
2019-05-03T11:01:52.203Z,37.00
2019-05-03T11:12:43.300Z,38.38
2019-05-03T11:17:55.737Z,36.75
2019-05-03T11:23:09.917Z,37.84
2019-05-03T11:28:28.053Z,37.44
2019-05-03T11:33:46.774Z,37.63
2019-05-03T11:39:16.962Z,38.38
2019-05-03T11:44:45.582Z,36.79
2019-05-03T11:49:55.791Z,37.45
2019-05-03T11:55:11.179Z,38.00
2019-05-03T12:00:25.329Z,37.54
2019-05-03T12:05:42.915Z,36.98
2019-05-03T12:11:00.585Z,37.17
2019-05-03T12:16:17.323Z,38.68
2019-05-03T12:21:30.673Z,37.41
2019-05-03T12:26:47.020Z,36.66
2019-05-03T12:32:00.015Z,37.13
2019-05-03T12:37:15.517Z,37.51
2019-05-03T12:42:29.871Z,35.34
2019-05-03T12:47:39.204Z,36.05
2019-05-03T12:52:52.440Z,35.89
2019-05-03T12:58:01.053Z,36.60
2019-05-03T13:03:15.245Z,37.29
2019-05-03T13:08:47.333Z,37.03
2019-05-03T13:13:56.466Z,38.17
2019-05-03T13:19:05.548Z,37.98
2019-05-03T13:24:22.815Z,38.37
2019-05-03T13:29:25.645Z,39.45
2019-05-03T13:34:35.363Z,37.49
2019-05-03T13:39:45.313Z,37.43
2019-05-03T13:44:55.776Z,38.75
2019-05-03T13:50:04.614Z,37.84
2019-05-03T13:55:15.069Z,39.38
2019-05-03T14:00:24.706Z,39.38
2019-05-03T14:05:35.221Z,37.87
2019-05-03T14:10:45.230Z,39.21
2019-05-03T14:15:49.710Z,38.08
2019-05-03T14:21:20.892Z,38.36
2019-05-03T14:26:29.851Z,38.81
2019-05-03T14:31:45.365Z,38.28
2019-05-03T14:36:55.527Z,38.41
2019-05-03T14:42:06.653Z,36.58
2019-05-03T14:47:14.789Z,36.89
2019-05-03T14:52:20.501Z,37.64
2019-05-03T14:57:38.231Z,38.93
2019-05-03T15:03:05.191Z,37.55
2019-05-03T15:08:14.996Z,38.27
2019-05-03T15:13:24.914Z,39.82
2019-05-03T15:18:31.329Z,39.99
2019-05-03T15:23:40.096Z,38.86
2019-05-03T15:28:49.643Z,40.38
2019-05-03T15:33:56.918Z,41.76
2019-05-03T15:39:07.802Z,41.62
2019-05-03T15:44:25.242Z,42.01
2019-05-03T15:49:35.726Z,41.23
2019-05-03T15:54:41.718Z,41.85
2019-05-03T15:59:52.194Z,40.93
2019-05-03T16:05:01.884Z,41.54
2019-05-03T16:10:10.506Z,41.62
2019-05-03T16:15:19.838Z,41.43
2019-05-03T16:20:26.556Z,42.21
2019-05-03T16:25:35.634Z,42.97
2019-05-03T16:30:55.570Z,43.41
2019-05-03T16:36:05.470Z,42.99
2019-05-03T16:41:17.662Z,41.94
2019-05-03T16:46:23.587Z,42.79
2019-05-03T16:51:34.850Z,43.19
2019-05-03T16:56:41.074Z,44.69
2019-05-03T17:01:52.924Z,44.72
2019-05-03T17:07:05.638Z,44.75
2019-05-03T17:12:15.217Z,45.04
2019-05-03T17:17:27.741Z,45.98
2019-05-03T17:22:37.321Z,46.08
2019-05-03T17:27:46.562Z,46.16
2019-05-03T17:32:57.541Z,46.55
2019-05-03T17:38:07.074Z,46.11
2019-05-03T17:43:36.387Z,45.86
2019-05-03T17:48:45.233Z,46.55
2019-05-03T17:54:07.269Z,46.28
2019-05-03T17:59:29.500Z,46.98
2019-05-03T18:04:55.027Z,46.61
2019-05-03T18:10:04.749Z,46.70
2019-05-03T18:15:17.771Z,46.92
2019-05-03T18:20:27.456Z,47.74
2019-05-03T18:25:35.339Z,48.12
2019-05-03T18:30:42.894Z,48.47
2019-05-03T18:35:55.013Z,49.08
2019-05-03T18:41:04.617Z,50.64
2019-05-03T18:46:37.077Z,51.30
2019-05-03T18:51:44.807Z,52.43
2019-05-03T18:56:55.735Z,53.87
2019-05-03T19:02:05.467Z,54.50
2019-05-03T19:07:29.971Z,55.51
2019-05-03T19:12:48.990Z,56.03
2019-05-03T19:18:01.450Z,57.38
2019-05-03T19:23:09.885Z,57.61
2019-05-03T19:28:17.809Z,57.77
2019-05-03T19:33:30.232Z,57.25
2019-05-03T19:38:40.443Z,56.92
2019-05-03T19:43:47.693Z,56.01
2019-05-03T19:48:57.278Z,56.59
2019-05-03T19:54:05.693Z,56.05
2019-05-03T19:59:15.647Z,56.46
2019-05-03T20:04:57.404Z,56.88
2019-05-03T20:09:55.609Z,57.08
2019-05-03T20:15:05.312Z,56.60
2019-05-03T20:20:15.444Z,57.32
2019-05-03T20:25:24.334Z,57.90
2019-05-03T20:30:30.971Z,58.14
2019-05-03T20:35:45.141Z,59.22
2019-05-03T20:40:57.760Z,60.15
2019-05-03T20:46:12.284Z,60.77
2019-05-03T20:51:17.575Z,61.24
2019-05-03T20:56:26.973Z,61.69
2019-05-03T21:01:34.753Z,62.08
2019-05-03T21:06:45.509Z,62.52
2019-05-03T21:11:55.139Z,63.75
2019-05-03T21:17:17.232Z,64.01
2019-05-03T21:22:35.934Z,63.68
2019-05-03T21:27:45.161Z,64.35
2019-05-03T21:32:51.629Z,65.12
2019-05-03T21:37:59.174Z,64.40
2019-05-03T21:43:05.118Z,64.48
2019-05-03T21:48:20.003Z,65.10
2019-05-03T21:53:34.461Z,64.63
2019-05-03T21:58:44.948Z,64.76
2019-05-03T22:03:51.440Z,65.08
2019-05-03T22:09:00.069Z,65.06
2019-05-03T22:14:12.684Z,64.99
2019-05-03T22:19:22.183Z,64.77
2019-05-03T22:24:42.053Z,64.64
2019-05-03T22:29:55.041Z,65.19
2019-05-03T22:35:06.686Z,64.49
2019-05-03T22:40:18.660Z,64.54
2019-05-03T22:45:24.785Z,65.21
2019-05-03T22:50:34.449Z,65.19
2019-05-03T22:55:45.100Z,64.77
2019-05-03T23:00:55.107Z,64.44
2019-05-03T23:06:00.878Z,64.30
2019-05-03T23:11:12.294Z,63.59
2019-05-03T23:16:20.060Z,64.27
2019-05-03T23:21:31.557Z,64.92
2019-05-03T23:26:39.500Z,64.72
2019-05-03T23:31:48.607Z,65.18
2019-05-03T23:36:57.758Z,64.61
2019-05-03T23:42:09.304Z,64.23
2019-05-03T23:47:27.581Z,63.82
2019-05-03T23:52:35.712Z,63.45
2019-05-03T23:57:44.668Z,62.98
